This is the latest recevied weather packets stored in our database for station/object N1ORT. If no packets are shown the sender has not sent any weather packets the latest 10 day(s).
| Time | Temp. | Humidity | Pressure | Rain* | Wind** | Luminosity | Snow |
|---|---|---|---|---|---|---|---|
| 1777990760 | 21.11° C | 54% | 1007.5 hPa | 0 mm | - | 775 W/m² | - |
| 1777990457 | 20.56° C | 55% | 1007.5 hPa | 0 mm | - | 772 W/m² | - |
| 1777989850 | 20° C | 56% | 1007.5 hPa | 0 mm | - | 743 W/m² | - |
| 1777989547 | 20° C | 58% | 1007.6 hPa | 0 mm | - | 739 W/m² | - |
| 1777989244 | 20° C | 60% | 1007.2 hPa | 0 mm | - | 778 W/m² | - |
| 1777988940 | 19.44° C | 58% | 1007.3 hPa | 0 mm | - | 416 W/m² | - |
| 1777988636 | 19.44° C | 58% | 1007.4 hPa | 0 mm | - | 708 W/m² | - |
| 1777988333 | 18.89° C | 61% | 1007.5 hPa | 0 mm | - | 339 W/m² | - |
| 1777988030 | 18.89° C | 60% | 1007.5 hPa | 0 mm | - | 694 W/m² | - |
| 1777987725 | 18.33° C | 62% | 1007.8 hPa | 0 mm | - | 666 W/m² | - |
| 1777987423 | 17.22° C | 66% | 1007.8 hPa | 0 mm | - | 342 W/m² | - |
| 1777987120 | 16.67° C | 67% | 1007.6 hPa | 0 mm | - | 315 W/m² | - |
| 1777986817 | 16.67° C | 66% | 1007.6 hPa | 0 mm | - | 180 W/m² | - |
| 1777986515 | 16.67° C | 67% | 1007.7 hPa | 0 mm | - | 137 W/m² | - |
| 1777986213 | 17.22° C | 65% | 1007.7 hPa | 0 mm | - | 182 W/m² | - |
| 1777985910 | 16.11° C | 68% | 1007.6 hPa | 0 mm | - | 347 W/m² | - |
| 1777985607 | 15.56° C | 68% | 1007.5 hPa | 0 mm | - | 176 W/m² | - |
| 1777985304 | 15.56° C | 69% | 1007.4 hPa | 0 mm | - | 149 W/m² | - |
| 1777985001 | 15.56° C | 70% | 1007.5 hPa | 0 mm | - | 215 W/m² | - |
| 1777984696 | 15.56° C | 69% | 1007.7 hPa | 0 mm | - | 170 W/m² | - |
| 1777984393 | 15.56° C | 69% | 1007.7 hPa | 0 mm | - | 145 W/m² | - |
| 1777984089 | 15.56° C | 69% | 1007.7 hPa | 0 mm | - | 139 W/m² | - |
| 1777983787 | 15.56° C | 68% | 1007.7 hPa | 0 mm | - | 115 W/m² | - |
| 1777983483 | 15.56° C | 67% | 1007.7 hPa | 0 mm | - | 127 W/m² | - |
| 1777983180 | 16.11° C | 67% | 1007.9 hPa | 0 mm | - | 152 W/m² | - |
* Rain latest hour (hover to see other rain measurements)
** Current wind speed in m/s (hover to see current wind gust speed)